Time;durP1;ratioP1;P1;durP2;ratioP2;P2;SDS_P1;SDS_P2;PMS_P1;PMS_P2;Temp;Humidity;BMP_temperature;BMP_pressure;BME280_temperature;BME280_humidity;BME280_pressure;Samples;Min_cycle;Max_cycle;Signal;HPM_P1;HPM_P2
2021/09/22 00:02:06;;;;;;;956.75;814.85;;;;;;;;;;5005240;28;20038;-77
2021/09/22 00:04:33;;;;;;;961.00;815.72;;;;;;;;;;5006567;28;20026;-77
2021/09/22 00:06:59;;;;;;;960.35;817.42;;;;;;;;;;5005180;28;20042;-76
2021/09/22 00:52:16;;;;;;;957.40;779.53;;;;;;;;;;4997076;28;20061;-76
2021/09/22 00:54:42;;;;;;;960.17;789.63;;;;;;;;;;5010263;28;20401;-76
2021/09/22 00:57:13;;;;;;;959.95;785.50;;;;;;;;;;5008869;28;20026;-76
2021/09/22 00:59:39;;;;;;;957.35;793.97;;;;;;;;;;5005614;28;20037;-76
2021/09/22 01:02:06;;;;;;;961.60;798.13;;;;;;;;;;5008768;28;20563;-76
2021/09/22 01:04:32;;;;;;;958.22;787.38;;;;;;;;;;5008173;28;20026;-76
2021/09/22 01:06:58;;;;;;;959.28;789.33;;;;;;;;;;5007791;28;20030;-76
2021/09/22 01:09:25;;;;;;;961.50;797.45;;;;;;;;;;5008358;28;20077;-76
2021/09/22 01:11:51;;;;;;;957.20;787.40;;;;;;;;;;5008306;28;20108;-76
2021/09/22 01:14:20;;;;;;;959.55;794.97;;;;;;;;;;5009107;28;20030;-76
2021/09/22 01:16:46;;;;;;;961.67;800.47;;;;;;;;;;5009545;28;20036;-76
2021/09/22 01:19:12;;;;;;;958.95;797.47;;;;;;;;;;4989947;28;20475;-77
2021/09/22 01:21:43;;;;;;;962.47;802.33;;;;;;;;;;5006213;28;20029;-76
2021/09/22 01:24:09;;;;;;;965.13;800.90;;;;;;;;;;5005823;28;20448;-77
2021/09/22 01:26:35;;;;;;;959.20;799.40;;;;;;;;;;5009493;28;20050;-76
2021/09/22 01:29:01;;;;;;;957.17;801.72;;;;;;;;;;5007255;28;20029;-76
2021/09/22 01:31:27;;;;;;;962.25;810.63;;;;;;;;;;5007511;28;20026;-76
2021/09/22 01:33:53;;;;;;;956.58;799.08;;;;;;;;;;5007801;28;20037;-76
2021/09/22 01:36:19;;;;;;;953.95;787.10;;;;;;;;;;5008598;28;20026;-76
2021/09/22 01:38:45;;;;;;;960.97;785.38;;;;;;;;;;5007208;28;20048;-76
2021/09/22 01:41:12;;;;;;;953.85;770.45;;;;;;;;;;5008976;28;20033;-76
2021/09/22 01:43:39;;;;;;;960.55;792.78;;;;;;;;;;5007258;28;20258;-76
2021/09/22 01:46:05;;;;;;;958.50;784.47;;;;;;;;;;5009005;28;20038;-77
2021/09/22 01:48:32;;;;;;;965.40;798.80;;;;;;;;;;5008597;28;20030;-77
2021/09/22 01:50:59;;;;;;;961.17;792.25;;;;;;;;;;5009746;28;20125;-77
2021/09/22 01:53:26;;;;;;;960.67;793.15;;;;;;;;;;5026368;28;20485;-77
2021/09/22 01:55:53;;;;;;;962.42;796.58;;;;;;;;;;5007354;28;20030;-77
2021/09/22 01:58:19;;;;;;;965.78;803.25;;;;;;;;;;5006832;28;20104;-77
2021/09/22 02:00:45;;;;;;;961.00;790.78;;;;;;;;;;5006189;28;20038;-76
2021/09/22 02:03:11;;;;;;;966.42;810.30;;;;;;;;;;5007554;28;20514;-77
2021/09/22 02:05:37;;;;;;;964.92;807.35;;;;;;;;;;5007496;28;20022;-76
2021/09/22 02:08:04;;;;;;;962.03;797.63;;;;;;;;;;5010084;28;20040;-77
2021/09/22 02:10:30;;;;;;;963.42;791.22;;;;;;;;;;5022538;28;20030;-77
2021/09/22 02:12:56;;;;;;;958.42;782.63;;;;;;;;;;5009020;28;20065;-77
2021/09/22 02:15:22;;;;;;;962.13;794.20;;;;;;;;;;5008383;28;20041;-76
2021/09/22 02:17:48;;;;;;;961.50;798.47;;;;;;;;;;5008293;28;20038;-77
2021/09/22 02:20:14;;;;;;;961.95;799.25;;;;;;;;;;5006839;28;20026;-76
2021/09/22 02:22:40;;;;;;;962.92;800.55;;;;;;;;;;5007256;28;20466;-76
2021/09/22 02:25:07;;;;;;;961.15;791.78;;;;;;;;;;5011970;28;20025;-77
2021/09/22 02:27:33;;;;;;;959.38;791.22;;;;;;;;;;5008762;28;20025;-77
2021/09/22 02:29:59;;;;;;;964.97;803.10;;;;;;;;;;5005903;28;20026;-76
2021/09/22 02:32:25;;;;;;;955.00;782.00;;;;;;;;;;5007136;28;20017;-77
2021/09/22 02:34:51;;;;;;;958.60;789.33;;;;;;;;;;5007730;28;20474;-76
2021/09/22 02:37:17;;;;;;;955.05;784.70;;;;;;;;;;5008332;28;20026;-76
2021/09/22 02:39:43;;;;;;;959.30;791.10;;;;;;;;;;5005632;28;20133;-76
2021/09/22 02:42:09;;;;;;;962.60;800.47;;;;;;;;;;5011518;28;20041;-76
2021/09/22 02:44:36;;;;;;;963.97;799.55;;;;;;;;;;5006434;28;20040;-76
2021/09/22 02:47:02;;;;;;;959.60;789.72;;;;;;;;;;5006402;28;20397;-76
2021/09/22 02:49:28;;;;;;;962.63;796.08;;;;;;;;;;5006353;28;20519;-76
2021/09/22 02:51:54;;;;;;;956.50;788.90;;;;;;;;;;5006063;28;20058;-77
2021/09/22 02:54:20;;;;;;;957.42;796.22;;;;;;;;;;5007640;28;20492;-76
2021/09/22 02:56:46;;;;;;;958.03;788.70;;;;;;;;;;5007640;28;20041;-76
2021/09/22 02:59:12;;;;;;;965.10;805.17;;;;;;;;;;5005818;28;20038;-76
2021/09/22 03:01:39;;;;;;;957.55;791.88;;;;;;;;;;5006245;28;20029;-77
2021/09/22 03:04:04;;;;;;;963.00;797.38;;;;;;;;;;5007467;28;20113;-77
2021/09/22 03:06:30;;;;;;;958.75;790.90;;;;;;;;;;5006487;28;20101;-76
2021/09/22 03:08:57;;;;;;;957.38;784.28;;;;;;;;;;5006003;28;20084;-76
2021/09/22 03:11:23;;;;;;;960.45;779.50;;;;;;;;;;5006141;28;20042;-76
2021/09/22 03:13:49;;;;;;;955.95;772.10;;;;;;;;;;5007700;28;20042;-76
2021/09/22 03:16:15;;;;;;;954.85;767.03;;;;;;;;;;5012013;28;20400;-76
2021/09/22 03:18:41;;;;;;;957.60;780.80;;;;;;;;;;5012761;28;20034;-76
2021/09/22 03:21:07;;;;;;;961.47;791.28;;;;;;;;;;5007360;28;20073;-77
2021/09/22 03:23:33;;;;;;;960.00;770.20;;;;;;;;;;5007197;28;20030;-76
2021/09/22 03:25:59;;;;;;;954.60;780.08;;;;;;;;;;5005765;28;20527;-76
2021/09/22 03:28:25;;;;;;;957.35;784.50;;;;;;;;;;5005596;28;20478;-76
2021/09/22 03:30:51;;;;;;;958.47;789.83;;;;;;;;;;5003306;28;20060;-76
2021/09/22 03:33:17;;;;;;;956.95;788.78;;;;;;;;;;5008120;28;20705;-76
2021/09/22 03:35:44;;;;;;;957.45;794.78;;;;;;;;;;5005335;28;20030;-77
2021/09/22 03:38:10;;;;;;;957.03;793.08;;;;;;;;;;5007022;28;20065;-77
2021/09/22 03:40:36;;;;;;;958.38;782.35;;;;;;;;;;5007088;28;20591;-76
2021/09/22 03:43:03;;;;;;;960.63;795.80;;;;;;;;;;5007500;28;20022;-76
2021/09/22 03:45:29;;;;;;;960.75;798.30;;;;;;;;;;5006125;28;20364;-76
2021/09/22 03:47:55;;;;;;;957.90;794.85;;;;;;;;;;5007143;28;20386;-76
2021/09/22 03:50:21;;;;;;;959.33;795.80;;;;;;;;;;5007970;28;20048;-76
2021/09/22 03:52:47;;;;;;;956.83;793.40;;;;;;;;;;5005511;28;20045;-76
2021/09/22 03:55:13;;;;;;;962.47;805.38;;;;;;;;;;5006056;28;20026;-76
2021/09/22 03:57:39;;;;;;;960.25;798.03;;;;;;;;;;5005000;28;20037;-76
2021/09/22 04:00:06;;;;;;;957.47;801.80;;;;;;;;;;5005091;28;20033;-76
2021/09/22 04:02:32;;;;;;;956.92;800.38;;;;;;;;;;5005553;28;20052;-76
2021/09/22 04:04:58;;;;;;;958.97;795.92;;;;;;;;;;5005503;28;20053;-75
2021/09/22 04:07:24;;;;;;;960.53;808.72;;;;;;;;;;5043226;28;20038;-76
2021/09/22 04:09:50;;;;;;;958.20;804.05;;;;;;;;;;5005752;28;20065;-76
2021/09/22 04:12:16;;;;;;;957.38;795.72;;;;;;;;;;5005883;28;20527;-76
2021/09/22 04:14:42;;;;;;;951.80;791.60;;;;;;;;;;5007252;28;20217;-76
2021/09/22 04:17:08;;;;;;;955.88;798.40;;;;;;;;;;5005731;28;20038;-76
2021/09/22 04:19:34;;;;;;;959.30;808.25;;;;;;;;;;4997738;28;20529;-76
2021/09/22 04:22:00;;;;;;;958.22;802.65;;;;;;;;;;5009102;28;20030;-76
2021/09/22 04:24:26;;;;;;;957.40;804.90;;;;;;;;;;5010907;28;20029;-75
2021/09/22 04:26:52;;;;;;;964.80;811.03;;;;;;;;;;5009386;28;20111;-76
2021/09/22 04:29:18;;;;;;;961.50;812.40;;;;;;;;;;5006679;28;20449;-76
2021/09/22 04:31:44;;;;;;;967.90;820.28;;;;;;;;;;5008571;28;20379;-76
2021/09/22 04:34:10;;;;;;;961.83;809.15;;;;;;;;;;5010444;28;20033;-77
2021/09/22 04:36:36;;;;;;;963.63;814.10;;;;;;;;;;5009824;28;20034;-76
2021/09/22 04:39:06;;;;;;;961.15;806.00;;;;;;;;;;5008285;28;20383;-76
2021/09/22 04:41:31;;;;;;;958.65;802.25;;;;;;;;;;5010198;28;20038;-76
2021/09/22 04:43:57;;;;;;;956.35;798.58;;;;;;;;;;5010301;28;20044;-76
2021/09/22 04:46:23;;;;;;;961.10;807.08;;;;;;;;;;5010027;28;20101;-76
2021/09/22 04:48:49;;;;;;;961.63;811.65;;;;;;;;;;5002676;28;20041;-76
2021/09/22 04:51:15;;;;;;;964.22;818.30;;;;;;;;;;4990321;28;20077;-76
2021/09/22 04:53:41;;;;;;;957.53;801.55;;;;;;;;;;4997898;28;20033;-76
2021/09/22 04:56:07;;;;;;;960.40;811.22;;;;;;;;;;5009795;28;20033;-75
2021/09/22 04:58:33;;;;;;;962.05;816.92;;;;;;;;;;5009054;28;20025;-76
2021/09/22 05:01:01;;;;;;;965.85;823.40;;;;;;;;;;5007126;28;20025;-76
2021/09/22 05:03:28;;;;;;;958.28;812.95;;;;;;;;;;5009392;28;20124;-76
2021/09/22 05:05:53;;;;;;;963.72;819.20;;;;;;;;;;5008266;28;20157;-76
2021/09/22 05:08:19;;;;;;;958.63;813.13;;;;;;;;;;5009290;28;20500;-76
2021/09/22 05:10:45;;;;;;;965.53;822.45;;;;;;;;;;5009256;28;20216;-76
2021/09/22 05:13:11;;;;;;;957.20;809.83;;;;;;;;;;5007933;28;20091;-76
2021/09/22 05:15:37;;;;;;;960.53;820.92;;;;;;;;;;5017589;28;20029;-76
2021/09/22 05:18:03;;;;;;;960.63;819.28;;;;;;;;;;5025945;28;20033;-76
2021/09/22 05:20:29;;;;;;;958.60;809.72;;;;;;;;;;5008159;28;20041;-76
2021/09/22 05:22:55;;;;;;;966.08;820.45;;;;;;;;;;5008920;28;20037;-76
2021/09/22 05:25:21;;;;;;;966.25;818.72;;;;;;;;;;5008200;28;20030;-76
2021/09/22 05:27:47;;;;;;;960.45;820.17;;;;;;;;;;5009189;28;20101;-75
2021/09/22 05:30:14;;;;;;;966.80;824.53;;;;;;;;;;5004536;28;20091;-76
2021/09/22 05:32:40;;;;;;;964.63;820.47;;;;;;;;;;5009713;28;20026;-76
2021/09/22 05:35:06;;;;;;;963.30;827.03;;;;;;;;;;5007509;28;20036;-76
2021/09/22 05:37:32;;;;;;;963.63;821.95;;;;;;;;;;5007296;28;20029;-76
2021/09/22 05:39:59;;;;;;;961.30;817.72;;;;;;;;;;5008612;28;20472;-76
2021/09/22 05:42:26;;;;;;;960.40;813.58;;;;;;;;;;5008491;28;20026;-76
2021/09/22 05:44:52;;;;;;;960.15;817.60;;;;;;;;;;5009529;28;20030;-75
2021/09/22 05:47:18;;;;;;;958.10;814.58;;;;;;;;;;5007471;28;20508;-76
2021/09/22 05:49:44;;;;;;;961.35;814.75;;;;;;;;;;5007885;28;20397;-75
2021/09/22 05:52:10;;;;;;;964.42;825.67;;;;;;;;;;5008138;28;20057;-76
2021/09/22 05:54:36;;;;;;;965.72;826.30;;;;;;;;;;5008808;28;20117;-75
2021/09/22 05:57:02;;;;;;;963.25;816.00;;;;;;;;;;5007217;28;20541;-76
2021/09/22 05:59:29;;;;;;;962.28;821.80;;;;;;;;;;5006227;28;20366;-76
2021/09/22 06:01:55;;;;;;;963.75;828.58;;;;;;;;;;5006707;28;20688;-75
2021/09/22 06:04:21;;;;;;;963.85;824.47;;;;;;;;;;5008842;28;20113;-76
2021/09/22 06:06:47;;;;;;;966.72;829.75;;;;;;;;;;5007810;28;20572;-76
2021/09/22 06:09:13;;;;;;;963.05;827.72;;;;;;;;;;5007178;28;20030;-76
2021/09/22 06:11:40;;;;;;;967.70;840.95;;;;;;;;;;5007590;28;20250;-76
2021/09/22 06:14:06;;;;;;;965.60;833.72;;;;;;;;;;5006933;28;20506;-76
2021/09/22 06:16:32;;;;;;;965.17;843.30;;;;;;;;;;5006946;28;20034;-75
2021/09/22 06:18:58;;;;;;;970.95;846.10;;;;;;;;;;5006359;28;20196;-76
2021/09/22 06:21:24;;;;;;;973.03;852.17;;;;;;;;;;5006249;28;20057;-76
2021/09/22 06:23:53;;;;;;;966.83;836.90;;;;;;;;;;5007044;28;20026;-76
2021/09/22 06:26:23;;;;;;;964.85;829.03;;;;;;;;;;5006346;28;20018;-76
2021/09/22 06:28:49;;;;;;;958.25;819.67;;;;;;;;;;5007955;28;20038;-76
2021/09/22 06:31:16;;;;;;;965.45;829.92;;;;;;;;;;5004569;28;20140;-75
2021/09/22 06:33:42;;;;;;;963.88;826.53;;;;;;;;;;5006240;28;20033;-75
2021/09/22 06:36:08;;;;;;;965.15;825.75;;;;;;;;;;5006262;28;20033;-75
2021/09/22 06:38:34;;;;;;;966.75;836.10;;;;;;;;;;5007836;28;20246;-76
2021/09/22 06:41:00;;;;;;;970.58;843.40;;;;;;;;;;5010508;28;20017;-76
2021/09/22 06:43:26;;;;;;;969.58;842.53;;;;;;;;;;5007468;28;20057;-76
2021/09/22 06:45:52;;;;;;;966.65;842.58;;;;;;;;;;5006518;28;20030;-76
2021/09/22 06:48:18;;;;;;;970.10;846.50;;;;;;;;;;5006097;28;20147;-76
2021/09/22 06:50:44;;;;;;;966.35;842.33;;;;;;;;;;5006322;28;20517;-75
2021/09/22 06:53:11;;;;;;;969.53;846.45;;;;;;;;;;5006092;28;20038;-76
2021/09/22 06:55:36;;;;;;;982.95;857.13;;;;;;;;;;5006196;28;20030;-75
2021/09/22 06:58:03;;;;;;;972.25;857.42;;;;;;;;;;5017543;28;20037;-76
2021/09/22 07:00:29;;;;;;;974.60;864.78;;;;;;;;;;5025298;28;20060;-75
2021/09/22 07:02:55;;;;;;;976.78;863.80;;;;;;;;;;5025899;28;20029;-75
2021/09/22 07:05:21;;;;;;;974.83;865.05;;;;;;;;;;5025716;28;20489;-75
2021/09/22 07:07:47;;;;;;;976.50;867.03;;;;;;;;;;5025813;28;20057;-75
2021/09/22 07:10:15;;;;;;;988.42;879.42;;;;;;;;;;5009343;28;20123;-75
2021/09/22 07:12:41;;;;;;;980.85;871.78;;;;;;;;;;5006458;28;20099;-75
2021/09/22 07:15:07;;;;;;;981.63;871.50;;;;;;;;;;5005362;28;20029;-75
2021/09/22 07:17:33;;;;;;;986.92;878.00;;;;;;;;;;5010567;28;20053;-76
2021/09/22 07:19:59;;;;;;;972.60;861.55;;;;;;;;;;5010372;28;20493;-76
2021/09/22 07:22:25;;;;;;;984.25;875.47;;;;;;;;;;4999826;28;20080;-76
2021/09/22 07:24:53;;;;;;;989.90;880.60;;;;;;;;;;5004398;28;20093;-76
2021/09/22 07:27:19;;;;;;;990.55;882.03;;;;;;;;;;4998261;28;20037;-76
2021/09/22 07:29:47;;;;;;;994.85;885.40;;;;;;;;;;4999398;28;20115;-76
2021/09/22 07:32:15;;;;;;;1002.22;893.03;;;;;;;;;;5013470;28;20358;-76
2021/09/22 07:34:41;;;;;;;996.90;888.13;;;;;;;;;;5003198;28;20033;-77
2021/09/22 07:37:10;;;;;;;1009.70;900.20;;;;;;;;;;5001911;28;20062;-77
2021/09/22 07:39:37;;;;;;;1006.00;896.05;;;;;;;;;;4999109;28;20390;-77
2021/09/22 07:42:03;;;;;;;1012.90;903.45;;;;;;;;;;4995283;28;20501;-77
2021/09/22 07:44:30;;;;;;;1020.10;910.17;;;;;;;;;;5000134;28;20112;-76
2021/09/22 07:46:58;;;;;;;1010.55;901.15;;;;;;;;;;5001975;28;20030;-77
2021/09/22 07:49:24;;;;;;;1014.72;905.17;;;;;;;;;;5002961;28;20095;-77
2021/09/22 07:51:51;;;;;;;1014.67;905.05;;;;;;;;;;5003902;28;20069;-78
2021/09/22 07:54:17;;;;;;;1021.33;911.22;;;;;;;;;;5008040;28;20069;-78
2021/09/22 07:56:43;;;;;;;1023.75;913.58;;;;;;;;;;5000679;28;20116;-78
2021/09/22 07:59:09;;;;;;;1035.88;925.55;;;;;;;;;;5016826;28;20033;-78
2021/09/22 08:01:35;;;;;;;1038.28;927.92;;;;;;;;;;5001937;28;20026;-78
2021/09/22 08:04:01;;;;;;;1039.20;928.80;;;;;;;;;;5002013;28;20036;-78
2021/09/22 08:06:27;;;;;;;1026.68;917.38;;;;;;;;;;5011299;28;20501;-78
2021/09/22 08:08:53;;;;;;;1023.47;914.13;;;;;;;;;;5009175;28;20430;-76
2021/09/22 08:11:20;;;;;;;1055.60;944.63;;;;;;;;;;5004332;28;20037;-77
2021/09/22 08:13:46;;;;;;;1031.03;921.20;;;;;;;;;;5006399;28;20125;-77
2021/09/22 08:16:12;;;;;;;1002.20;894.45;;;;;;;;;;5007872;28;20029;-77
2021/09/22 08:18:38;;;;;;;1040.35;930.20;;;;;;;;;;5002709;28;20057;-78
2021/09/22 08:21:04;;;;;;;1060.10;949.28;;;;;;;;;;5001463;28;20036;-77
2021/09/22 08:23:31;;;;;;;1058.63;947.60;;;;;;;;;;4999296;28;20096;-76
2021/09/22 08:25:57;;;;;;;1067.22;955.83;;;;;;;;;;5014077;28;20370;-78
2021/09/22 08:28:23;;;;;;;1079.68;967.33;;;;;;;;;;5029901;28;20033;-76
2021/09/22 08:30:49;;;;;;;1072.43;961.45;;;;;;;;;;5006742;28;20318;-76
2021/09/22 08:33:16;;;;;;;1079.03;967.55;;;;;;;;;;5007052;28;20053;-77
2021/09/22 08:35:42;;;;;;;1085.25;973.17;;;;;;;;;;5001601;28;20037;-77
2021/09/22 08:38:08;;;;;;;1085.90;974.38;;;;;;;;;;5007002;28;20282;-77
2021/09/22 08:40:34;;;;;;;1101.95;989.85;;;;;;;;;;5005214;28;20108;-77
2021/09/22 08:43:03;;;;;;;1093.78;981.53;;;;;;;;;;4998977;28;20382;-77
2021/09/22 08:45:30;;;;;;;1100.32;988.08;;;;;;;;;;4997852;28;20018;-77
2021/09/22 08:47:56;;;;;;;1108.70;994.83;;;;;;;;;;5000353;28;20475;-77
2021/09/22 08:50:22;;;;;;;1114.32;999.20;;;;;;;;;;5006286;28;20026;-78
2021/09/22 08:52:49;;;;;;;1124.35;999.90;;;;;;;;;;5005393;28;20055;-77
2021/09/22 08:55:15;;;;;;;1137.40;999.90;;;;;;;;;;4998815;28;20058;-78
2021/09/22 08:57:41;;;;;;;1133.68;999.90;;;;;;;;;;5014183;28;20037;-77
2021/09/22 09:00:08;;;;;;;1140.55;999.90;;;;;;;;;;4994967;28;20045;-77
2021/09/22 09:02:42;;;;;;;1152.82;999.90;;;;;;;;;;5001724;28;20050;-77
2021/09/22 09:05:09;;;;;;;1153.45;999.90;;;;;;;;;;5003108;28;20501;-78
2021/09/22 09:07:47;;;;;;;1149.97;999.90;;;;;;;;;;5006647;28;20033;-77
2021/09/22 09:10:15;;;;;;;1145.13;999.90;;;;;;;;;;5010036;28;20030;-78
2021/09/22 09:12:41;;;;;;;1149.88;999.90;;;;;;;;;;5022719;28;21119;-76
2021/09/22 09:15:09;;;;;;;1152.55;999.90;;;;;;;;;;5024917;28;20049;-78
2021/09/22 09:17:39;;;;;;;1156.43;999.90;;;;;;;;;;5008161;28;20038;-77
2021/09/22 09:20:21;;;;;;;1155.90;999.90;;;;;;;;;;5009965;28;20018;-78
2021/09/22 09:22:57;;;;;;;1158.85;999.90;;;;;;;;;;5006751;28;20018;-78
2021/09/22 09:25:24;;;;;;;1172.07;999.90;;;;;;;;;;5008384;28;20048;-76
2021/09/22 09:27:50;;;;;;;1163.63;999.90;;;;;;;;;;5009459;28;20144;-77
2021/09/22 09:30:18;;;;;;;1168.07;999.90;;;;;;;;;;5004357;28;20029;-78
2021/09/22 09:32:44;;;;;;;1171.28;999.90;;;;;;;;;;5005693;28;20072;-78
2021/09/22 09:35:23;;;;;;;1172.63;999.90;;;;;;;;;;5004222;28;20250;-78
2021/09/22 09:37:56;;;;;;;1173.93;999.90;;;;;;;;;;5005146;28;20030;-78
2021/09/22 09:40:30;;;;;;;1188.93;999.90;;;;;;;;;;5006166;28;20032;-77
2021/09/22 09:42:56;;;;;;;1188.82;999.90;;;;;;;;;;5006773;28;20060;-79
2021/09/22 09:45:23;;;;;;;1207.28;999.90;;;;;;;;;;5007798;28;20501;-77
2021/09/22 09:47:59;;;;;;;1219.88;999.90;;;;;;;;;;5009963;28;20033;-75
2021/09/22 09:50:26;;;;;;;1223.75;999.90;;;;;;;;;;5008994;28;20022;-78
2021/09/22 09:52:53;;;;;;;1233.75;999.90;;;;;;;;;;5024065;28;20045;-77
2021/09/22 09:55:23;;;;;;;1232.53;999.90;;;;;;;;;;5008729;28;20030;-78
2021/09/22 09:57:49;;;;;;;1233.13;999.90;;;;;;;;;;5004232;28;20490;-76
2021/09/22 10:00:46;;;;;;;1230.97;999.90;;;;;;;;;;5008226;28;20105;-73
2021/09/22 10:03:21;;;;;;;1225.95;999.90;;;;;;;;;;4999965;28;20037;-75
2021/09/22 10:05:50;;;;;;;1230.40;999.90;;;;;;;;;;5006657;28;20042;-75
2021/09/22 10:08:18;;;;;;;1225.30;999.90;;;;;;;;;;5009092;28;20110;-76
2021/09/22 10:10:48;;;;;;;1227.47;999.90;;;;;;;;;;5006926;28;20033;-76
2021/09/22 10:13:15;;;;;;;1222.97;999.90;;;;;;;;;;5006801;28;20034;-74
2021/09/22 10:15:42;;;;;;;1221.00;999.90;;;;;;;;;;5005219;28;20441;-74
2021/09/22 10:18:09;;;;;;;1221.18;999.90;;;;;;;;;;5004058;28;20133;-75
2021/09/22 10:20:37;;;;;;;1215.85;999.90;;;;;;;;;;5006914;28;20022;-76
2021/09/22 10:23:04;;;;;;;1215.18;999.90;;;;;;;;;;5009388;28;20128;-77
2021/09/22 10:25:31;;;;;;;1220.80;999.90;;;;;;;;;;5005493;28;20041;-75
2021/09/22 10:27:57;;;;;;;1219.70;999.90;;;;;;;;;;5005795;28;20052;-76
2021/09/22 10:30:36;;;;;;;1223.32;999.90;;;;;;;;;;5001836;28;20041;-76
2021/09/22 10:33:02;;;;;;;1219.72;999.90;;;;;;;;;;5003991;28;20034;-76
2021/09/22 10:35:36;;;;;;;1233.32;999.90;;;;;;;;;;5008109;28;20498;-77
2021/09/22 10:38:24;;;;;;;1232.55;999.90;;;;;;;;;;5005737;28;20287;-76
2021/09/22 10:40:57;;;;;;;1233.05;999.90;;;;;;;;;;5002948;28;20404;-76
2021/09/22 10:43:24;;;;;;;1235.38;999.90;;;;;;;;;;5000735;28;20117;-77
2021/09/22 10:45:56;;;;;;;1234.70;999.90;;;;;;;;;;5002665;28;20508;-77
2021/09/22 10:48:23;;;;;;;1238.57;999.90;;;;;;;;;;5005584;28;20041;-77
2021/09/22 10:50:52;;;;;;;1243.80;999.90;;;;;;;;;;5033208;28;20033;-77
2021/09/22 10:53:33;;;;;;;1249.00;999.90;;;;;;;;;;5000381;28;20049;-77
2021/09/22 10:56:10;;;;;;;1242.95;999.90;;;;;;;;;;5005403;28;20045;-77
2021/09/22 10:58:49;;;;;;;1250.30;999.90;;;;;;;;;;5007203;28;20128;-76
2021/09/22 11:01:34;;;;;;;1246.43;999.90;;;;;;;;;;5003728;28;20065;-78
2021/09/22 11:04:00;;;;;;;1249.57;999.90;;;;;;;;;;5005476;28;20253;-76
2021/09/22 11:06:47;;;;;;;1253.45;999.90;;;;;;;;;;5022183;28;20553;-76
2021/09/22 11:09:27;;;;;;;1255.72;999.90;;;;;;;;;;4994581;28;20092;-75
2021/09/22 11:11:57;;;;;;;1246.35;999.90;;;;;;;;;;5005433;28;20482;-76
2021/09/22 11:14:40;;;;;;;1251.25;999.90;;;;;;;;;;5000010;28;20125;-74
2021/09/22 11:17:13;;;;;;;1252.70;999.90;;;;;;;;;;5023640;28;20065;-77
2021/09/22 11:19:40;;;;;;;1256.13;999.90;;;;;;;;;;4998915;28;20029;-77
2021/09/22 11:22:09;;;;;;;1265.28;999.90;;;;;;;;;;5002417;28;20026;-77
2021/09/22 11:24:35;;;;;;;1265.05;999.90;;;;;;;;;;5003521;28;20057;-77
2021/09/22 11:27:02;;;;;;;1262.65;999.90;;;;;;;;;;5005180;28;20072;-78
2021/09/22 11:29:29;;;;;;;1269.50;999.90;;;;;;;;;;5004818;28;20034;-77
2021/09/22 11:31:55;;;;;;;1269.78;999.90;;;;;;;;;;4994134;28;20026;-77
2021/09/22 11:34:29;;;;;;;1273.82;999.90;;;;;;;;;;5004401;28;20040;-78
2021/09/22 11:37:06;;;;;;;1267.30;999.90;;;;;;;;;;4985731;28;20036;-76
2021/09/22 11:39:32;;;;;;;1271.28;999.90;;;;;;;;;;5000301;28;20029;-77
2021/09/22 11:41:58;;;;;;;1273.30;999.90;;;;;;;;;;5006819;28;20105;-78
2021/09/22 11:44:31;;;;;;;1277.78;999.90;;;;;;;;;;5004145;28;20024;-77
2021/09/22 11:47:01;;;;;;;1274.40;999.90;;;;;;;;;;4998917;28;20022;-77
2021/09/22 11:49:34;;;;;;;1289.47;999.90;;;;;;;;;;5006839;28;20030;-76
2021/09/22 11:52:05;;;;;;;1286.20;999.90;;;;;;;;;;5002675;28;20117;-78
2021/09/22 11:54:34;;;;;;;1286.95;999.90;;;;;;;;;;4986788;28;20045;-77
2021/09/22 11:57:07;;;;;;;1299.30;999.90;;;;;;;;;;5002118;28;20721;-78
2021/09/22 11:59:36;;;;;;;1294.20;999.90;;;;;;;;;;5008153;28;20037;-77
2021/09/22 12:02:02;;;;;;;1295.82;999.90;;;;;;;;;;5008457;28;20030;-77
2021/09/22 12:04:32;;;;;;;1307.50;999.90;;;;;;;;;;5006756;28;20037;-77
2021/09/22 12:06:59;;;;;;;1305.18;999.90;;;;;;;;;;5003526;28;20441;-77
2021/09/22 12:09:25;;;;;;;1316.65;999.90;;;;;;;;;;5004775;28;20034;-77
2021/09/22 12:12:06;;;;;;;1312.18;999.90;;;;;;;;;;5003686;28;20080;-74
2021/09/22 12:14:32;;;;;;;1312.82;999.90;;;;;;;;;;4999972;28;20026;-76
2021/09/22 12:17:05;;;;;;;1310.45;999.90;;;;;;;;;;5005201;28;20037;-76
2021/09/22 12:19:31;;;;;;;1312.22;999.90;;;;;;;;;;5005340;28;20036;-77
2021/09/22 12:21:57;;;;;;;1314.13;999.90;;;;;;;;;;5007277;28;20756;-76
2021/09/22 12:24:23;;;;;;;1317.32;999.90;;;;;;;;;;5004826;28;20053;-76
2021/09/22 12:26:50;;;;;;;1321.07;999.90;;;;;;;;;;5006466;28;20353;-75
2021/09/22 12:29:17;;;;;;;1318.97;999.90;;;;;;;;;;5004587;28;20473;-76
2021/09/22 12:31:43;;;;;;;1316.28;999.90;;;;;;;;;;5005703;28;20022;-77
2021/09/22 12:34:16;;;;;;;1317.28;999.90;;;;;;;;;;5004979;28;20037;-77
2021/09/22 12:36:44;;;;;;;1322.53;999.90;;;;;;;;;;5004240;28;20030;-76
2021/09/22 12:39:13;;;;;;;1318.85;999.90;;;;;;;;;;5026433;28;20037;-77
2021/09/22 12:41:56;;;;;;;1315.80;999.90;;;;;;;;;;5012426;28;20405;-77
2021/09/22 12:44:22;;;;;;;1320.65;999.90;;;;;;;;;;5009591;28;20026;-75
2021/09/22 12:46:48;;;;;;;1316.70;999.90;;;;;;;;;;5004661;28;20478;-76
2021/09/22 12:49:15;;;;;;;1316.82;999.90;;;;;;;;;;5009001;28;20036;-75
2021/09/22 12:51:53;;;;;;;1314.43;999.90;;;;;;;;;;5008313;28;20457;-77
2021/09/22 12:54:19;;;;;;;1312.00;999.90;;;;;;;;;;5011057;28;20437;-78
2021/09/22 12:56:45;;;;;;;1311.63;999.90;;;;;;;;;;5006446;28;20156;-78
2021/09/22 12:59:17;;;;;;;1311.30;999.90;;;;;;;;;;5008260;28;20022;-77
2021/09/22 13:01:48;;;;;;;1314.28;999.90;;;;;;;;;;5007664;28;20113;-78
2021/09/22 13:04:21;;;;;;;1310.18;999.90;;;;;;;;;;5006909;28;20041;-78
2021/09/22 13:06:52;;;;;;;1307.75;999.90;;;;;;;;;;5006940;28;20033;-76
2021/09/22 13:09:18;;;;;;;;;;;;;;;;;;5007973;28;20402;-77
2021/09/22 13:11:46;;;;;;;1294.60;999.90;;;;;;;;;;5010976;28;19932;-77
2021/09/22 13:14:21;;;;;;;1299.03;999.90;;;;;;;;;;4997214;28;20030;-76
2021/09/22 13:16:55;;;;;;;1297.80;999.90;;;;;;;;;;4989212;28;20031;-77
2021/09/22 13:19:23;;;;;;;1300.40;999.90;;;;;;;;;;4989511;28;20109;-76
2021/09/22 13:21:49;;;;;;;1303.15;999.90;;;;;;;;;;5000009;28;20382;-77
2021/09/22 13:24:16;;;;;;;1305.15;999.90;;;;;;;;;;5009435;28;20050;-77
2021/09/22 13:26:43;;;;;;;1304.53;999.90;;;;;;;;;;5007655;28;20466;-78
2021/09/22 13:29:10;;;;;;;1304.85;999.90;;;;;;;;;;5007577;28;20057;-77
2021/09/22 13:31:39;;;;;;;1304.45;999.90;;;;;;;;;;5005393;28;20034;-74
2021/09/22 13:34:06;;;;;;;1298.03;999.90;;;;;;;;;;5006069;28;20314;-76
2021/09/22 13:36:32;;;;;;;1303.72;999.90;;;;;;;;;;5007537;28;20034;-76
2021/09/22 13:38:59;;;;;;;1300.47;999.90;;;;;;;;;;5007918;28;20037;-76
2021/09/22 13:41:27;;;;;;;1302.88;999.90;;;;;;;;;;5005584;28;20037;-76
2021/09/22 13:43:53;;;;;;;1302.47;999.90;;;;;;;;;;5007549;28;20026;-77
2021/09/22 13:46:19;;;;;;;1303.15;999.90;;;;;;;;;;5013469;28;20091;-74
2021/09/22 13:48:46;;;;;;;1303.38;999.90;;;;;;;;;;5006631;28;20266;-73
2021/09/22 13:51:12;;;;;;;1301.82;999.90;;;;;;;;;;5005867;28;20482;-74
2021/09/22 13:53:39;;;;;;;1307.82;999.90;;;;;;;;;;5004792;28;20065;-74
2021/09/22 13:56:05;;;;;;;1305.18;999.90;;;;;;;;;;5002115;28;20465;-74
2021/09/22 13:58:31;;;;;;;1302.60;999.90;;;;;;;;;;5007172;28;20048;-74
2021/09/22 14:00:59;;;;;;;1301.10;999.90;;;;;;;;;;5003793;28;20048;-73
2021/09/22 14:03:26;;;;;;;1296.50;999.90;;;;;;;;;;5004512;28;20029;-74
2021/09/22 14:05:52;;;;;;;1296.05;999.90;;;;;;;;;;5007701;28;20021;-74
2021/09/22 14:08:18;;;;;;;1296.57;999.90;;;;;;;;;;5005960;28;20605;-75
2021/09/22 14:10:45;;;;;;;1298.90;999.90;;;;;;;;;;5008213;28;20080;-74
2021/09/22 14:13:11;;;;;;;1300.88;999.90;;;;;;;;;;5006574;28;20034;-75
2021/09/22 14:15:39;;;;;;;1294.97;999.90;;;;;;;;;;5002083;28;20398;-74
2021/09/22 14:18:06;;;;;;;1299.07;999.90;;;;;;;;;;4998715;28;20161;-75
2021/09/22 14:20:33;;;;;;;1300.50;999.90;;;;;;;;;;4997860;28;20482;-74
2021/09/22 14:22:59;;;;;;;1290.30;999.90;;;;;;;;;;5002877;28;20030;-73
2021/09/22 14:25:26;;;;;;;1290.57;999.90;;;;;;;;;;4999932;28;20084;-73
2021/09/22 14:27:52;;;;;;;1289.55;999.90;;;;;;;;;;5000046;28;20037;-74
2021/09/22 14:30:19;;;;;;;1297.93;999.90;;;;;;;;;;5000489;28;20054;-74
2021/09/22 14:32:47;;;;;;;1294.55;999.90;;;;;;;;;;5008082;28;20108;-74